createdAt,value
2023-01-17T00:02:31.093Z,97940.19
2023-01-17T00:05:51.890Z,97914.81
2023-01-17T00:09:12.835Z,97940.75
2023-01-17T00:12:15.193Z,97935.47
2023-01-17T00:15:19.832Z,97923.91
2023-01-17T00:18:22.192Z,97916.59
2023-01-17T00:21:42.913Z,97921.63
2023-01-17T00:25:03.802Z,97937.00
2023-01-17T00:28:06.182Z,97926.91
2023-01-17T00:31:09.620Z,97923.13
2023-01-17T00:34:11.874Z,97924.66
2023-01-17T00:37:14.045Z,97913.19
2023-01-17T00:40:16.411Z,97912.25
2023-01-17T00:43:39.808Z,97932.97
2023-01-17T00:47:00.811Z,97917.09
2023-01-17T00:50:21.886Z,97921.78
2023-01-17T00:53:42.597Z,97923.88
2023-01-17T00:57:03.355Z,97906.47
2023-01-17T01:00:24.537Z,97904.97
2023-01-17T01:03:45.476Z,97926.97
2023-01-17T01:07:06.291Z,97918.78
2023-01-17T01:10:27.892Z,97927.06
2023-01-17T01:13:49.901Z,97933.88
2023-01-17T01:17:10.798Z,97942.69
2023-01-17T01:20:31.736Z,97937.00
2023-01-17T01:23:53.058Z,97925.41
2023-01-17T01:27:13.845Z,97947.22
2023-01-17T01:30:35.218Z,97937.13
2023-01-17T01:33:37.607Z,97937.47
2023-01-17T01:36:39.841Z,97937.56
2023-01-17T01:39:42.219Z,97933.47
2023-01-17T01:42:59.899Z,97927.38
2023-01-17T01:46:02.349Z,97943.09
2023-01-17T01:49:24.773Z,97952.28
2023-01-17T01:52:29.577Z,97935.84
2023-01-17T01:55:38.102Z,97927.25
2023-01-17T01:58:42.406Z,97937.97
2023-01-17T02:01:44.849Z,97940.75
2023-01-17T02:04:47.593Z,97900.81
2023-01-17T02:08:01.658Z,97920.28
2023-01-17T02:11:04.276Z,97916.53
2023-01-17T02:14:06.632Z,97903.06
2023-01-17T02:17:13.905Z,97902.13
2023-01-17T02:20:16.353Z,97894.31
2023-01-17T02:23:56.490Z,97896.56
2023-01-17T02:27:16.695Z,97893.66
2023-01-17T02:30:36.565Z,97904.09
2023-01-17T02:33:40.782Z,97899.97
2023-01-17T02:36:57.834Z,97895.97
2023-01-17T02:40:02.771Z,97907.22
2023-01-17T02:43:09.096Z,97881.50
2023-01-17T02:46:11.438Z,97885.75
2023-01-17T02:49:15.306Z,97892.84
2023-01-17T02:52:43.934Z,97886.44
2023-01-17T02:55:52.872Z,97878.03
2023-01-17T02:59:16.860Z,97862.19
2023-01-17T03:02:22.547Z,97849.25
2023-01-17T03:05:33.741Z,97822.38
2023-01-17T03:08:36.085Z,97811.03
2023-01-17T03:11:38.422Z,97816.84
2023-01-17T03:14:40.731Z,97825.63
2023-01-17T03:17:49.919Z,97798.19
2023-01-17T03:20:52.247Z,97814.06
2023-01-17T03:23:54.578Z,97807.38
2023-01-17T03:26:56.848Z,97801.28
2023-01-17T03:29:59.217Z,97792.56
2023-01-17T03:33:01.522Z,97794.13
2023-01-17T03:36:04.857Z,97783.13
2023-01-17T03:39:07.142Z,97781.25
2023-01-17T03:42:09.412Z,97772.63
2023-01-17T03:45:11.837Z,97763.91
2023-01-17T03:48:14.194Z,97765.53
2023-01-17T03:51:16.734Z,97772.94
2023-01-17T03:54:19.058Z,97764.81
2023-01-17T03:57:21.437Z,97753.97
2023-01-17T04:00:23.743Z,97762.56
2023-01-17T04:03:26.155Z,97759.84
2023-01-17T04:06:28.710Z,97759.03
2023-01-17T04:09:34.149Z,97757.72
2023-01-17T04:12:36.469Z,97753.22
2023-01-17T04:15:38.766Z,97763.81
2023-01-17T04:18:41.034Z,97749.50
2023-01-17T04:21:43.293Z,97750.06
2023-01-17T04:24:45.607Z,97760.91
2023-01-17T04:27:47.932Z,97758.81
2023-01-17T04:30:50.279Z,97760.63
2023-01-17T04:33:52.562Z,97771.53
2023-01-17T04:36:54.912Z,97765.94
2023-01-17T04:39:57.136Z,97764.09
2023-01-17T04:42:59.724Z,97778.16
2023-01-17T04:46:02.119Z,97762.28
2023-01-17T04:49:04.390Z,97764.41
2023-01-17T04:52:06.672Z,97758.22
2023-01-17T04:55:09.430Z,97774.09
2023-01-17T04:58:11.810Z,97764.03
2023-01-17T05:01:14.193Z,97771.63
2023-01-17T05:04:16.698Z,97771.03
2023-01-17T05:07:18.935Z,97781.47
2023-01-17T05:10:21.237Z,97786.19
2023-01-17T05:13:23.542Z,97782.53
2023-01-17T05:16:25.846Z,97774.19
2023-01-17T05:19:28.123Z,97778.09
2023-01-17T05:22:30.386Z,97772.91
2023-01-17T05:25:32.940Z,97787.50
2023-01-17T05:28:35.419Z,97778.94
2023-01-17T05:31:38.224Z,97754.28
2023-01-17T05:34:40.548Z,97781.28
2023-01-17T05:37:49.181Z,97781.53
2023-01-17T05:40:51.490Z,97783.38
2023-01-17T05:43:53.788Z,97794.41
2023-01-17T05:46:56.388Z,97800.34
2023-01-17T05:49:58.746Z,97798.97
2023-01-17T05:53:09.653Z,97805.06
2023-01-17T05:56:11.927Z,97822.63
2023-01-17T05:59:14.476Z,97815.97
2023-01-17T06:02:16.788Z,97825.63
2023-01-17T06:05:19.092Z,97831.03
2023-01-17T06:08:23.452Z,97835.97
2023-01-17T06:11:25.916Z,97842.50
2023-01-17T06:14:28.205Z,97832.50
2023-01-17T06:17:30.458Z,97835.97
2023-01-17T06:20:33.973Z,97838.59
2023-01-17T06:23:36.225Z,97844.03
2023-01-17T06:26:38.626Z,97853.88
2023-01-17T06:29:40.877Z,97840.16
2023-01-17T06:32:43.149Z,97848.44
2023-01-17T06:35:50.749Z,97853.97
2023-01-17T06:38:53.083Z,97869.84
2023-01-17T06:41:55.702Z,97874.72
2023-01-17T06:44:58.010Z,97877.25
2023-01-17T06:48:01.600Z,97881.63
2023-01-17T06:51:04.017Z,97891.41
2023-01-17T06:54:06.455Z,97895.75
2023-01-17T06:57:08.817Z,97908.38
2023-01-17T07:00:12.011Z,97905.97
2023-01-17T07:03:22.787Z,97910.16
2023-01-17T07:06:28.807Z,97921.44
2023-01-17T07:09:31.203Z,97928.81
2023-01-17T07:12:33.626Z,97919.31
2023-01-17T07:15:36.064Z,97936.88
2023-01-17T07:18:38.396Z,97920.81
2023-01-17T07:21:40.926Z,97937.47
2023-01-17T07:24:43.206Z,97934.34
2023-01-17T07:27:45.726Z,97944.13
2023-01-17T07:30:48.282Z,97954.41
2023-01-17T07:33:50.574Z,97954.03
2023-01-17T07:36:54.523Z,97955.13
2023-01-17T07:39:56.911Z,97960.38
2023-01-17T07:43:02.563Z,97970.28
2023-01-17T07:46:08.137Z,97975.59
2023-01-17T07:49:10.553Z,97986.97
2023-01-17T07:52:12.930Z,97972.28
2023-01-17T07:55:15.257Z,97997.03
2023-01-17T07:58:17.623Z,97993.47
2023-01-17T08:01:20.038Z,98006.44
2023-01-17T08:04:25.836Z,98005.09
2023-01-17T08:07:29.283Z,98016.72
2023-01-17T08:10:31.530Z,98022.50
2023-01-17T08:13:33.816Z,98015.25
2023-01-17T08:16:37.625Z,98027.69
2023-01-17T08:19:40.114Z,98042.75
2023-01-17T08:22:42.555Z,98037.47
2023-01-17T08:25:44.854Z,98031.03
2023-01-17T08:28:55.997Z,98025.84
2023-01-17T08:31:58.338Z,98035.69
2023-01-17T08:35:01.070Z,98049.78
2023-01-17T08:38:06.203Z,98054.81
2023-01-17T08:41:08.543Z,98058.47
2023-01-17T08:44:11.308Z,98071.41
2023-01-17T08:47:13.647Z,98072.75
2023-01-17T08:50:20.956Z,98063.72
2023-01-17T08:53:23.467Z,98062.34
2023-01-17T08:56:27.139Z,98067.63
2023-01-17T08:59:29.569Z,98068.03
2023-01-17T09:02:31.885Z,98075.38
2023-01-17T09:05:34.149Z,98073.94
2023-01-17T09:08:36.713Z,98084.50
2023-01-17T09:12:11.455Z,98103.47
2023-01-17T09:15:17.962Z,98102.59
2023-01-17T09:18:22.905Z,98099.22
2023-01-17T09:21:26.180Z,98080.31
2023-01-17T09:24:28.443Z,98059.47
2023-01-17T09:27:30.703Z,98079.66
2023-01-17T09:30:32.964Z,98071.38
2023-01-17T09:33:35.505Z,98070.38
2023-01-17T09:36:38.003Z,98087.94
2023-01-17T09:39:41.310Z,98095.06
2023-01-17T09:42:43.767Z,98101.16
2023-01-17T09:45:46.302Z,98105.41
2023-01-17T09:48:56.754Z,98117.44
2023-01-17T09:51:59.213Z,98130.69
2023-01-17T09:55:02.013Z,98131.81
2023-01-17T09:59:06.092Z,98122.75
2023-01-17T10:02:23.850Z,98107.00
2023-01-17T10:05:32.365Z,98129.19
2023-01-17T10:08:53.329Z,98129.78
2023-01-17T10:12:19.382Z,98128.28
2023-01-17T10:15:32.493Z,98137.59
2023-01-17T10:18:53.622Z,98134.00
2023-01-17T10:22:16.032Z,98129.25
2023-01-17T10:25:49.614Z,98115.91
2023-01-17T10:28:54.407Z,98139.38
2023-01-17T10:32:01.071Z,98115.47
2023-01-17T10:41:21.562Z,98116.16
2023-01-17T10:44:39.927Z,98123.13
2023-01-17T10:47:46.552Z,98087.47
2023-01-17T10:50:53.329Z,98104.94
2023-01-17T10:54:19.100Z,98099.81
2023-01-17T10:57:23.600Z,98104.38
2023-01-17T11:00:33.781Z,98107.19
2023-01-17T11:03:36.206Z,98085.13
2023-01-17T11:06:57.238Z,98082.38
2023-01-17T11:10:00.358Z,98075.00
2023-01-17T11:13:05.218Z,98075.13
2023-01-17T11:16:18.031Z,98073.09
2023-01-17T11:19:35.445Z,98072.78
2023-01-17T11:22:37.893Z,98065.94
2023-01-17T11:25:41.645Z,98058.59
2023-01-17T11:28:44.064Z,98059.28
2023-01-17T11:31:46.412Z,98057.78
2023-01-17T11:36:08.572Z,98017.03
2023-01-17T11:39:20.347Z,98036.13
2023-01-17T11:42:42.077Z,98028.56
2023-01-17T11:45:45.495Z,98042.34
2023-01-17T11:48:56.049Z,98027.91
2023-01-17T11:51:58.993Z,98046.50
2023-01-17T11:55:01.465Z,98047.84
2023-01-17T11:58:03.929Z,98045.88
2023-01-17T12:01:18.042Z,98060.66
2023-01-17T12:04:32.431Z,98070.97
2023-01-17T12:07:53.897Z,98083.13
2023-01-17T12:11:10.350Z,98079.22
2023-01-17T12:14:28.218Z,98081.03
2023-01-17T12:18:19.939Z,98080.97
2023-01-17T12:21:34.433Z,98072.91
2023-01-17T12:25:01.205Z,98073.31
2023-01-17T12:28:31.400Z,98069.41
2023-01-17T12:31:51.789Z,98061.69
2023-01-17T12:35:20.470Z,98075.16
2023-01-17T12:38:47.171Z,98056.91
2023-01-17T12:42:01.503Z,98071.41
2023-01-17T12:45:13.997Z,98065.34
2023-01-17T12:48:18.017Z,98073.84
2023-01-17T12:51:50.198Z,98069.16
2023-01-17T12:55:00.387Z,98063.94
2023-01-17T12:58:06.707Z,98067.22
2023-01-17T13:01:18.569Z,98059.00
2023-01-17T13:04:34.701Z,98042.53
2023-01-17T13:07:55.747Z,98065.75
2023-01-17T13:11:16.132Z,98053.84
2023-01-17T13:14:18.599Z,98057.59
2023-01-17T13:17:26.732Z,98073.25
2023-01-17T13:20:56.726Z,98086.31
2023-01-17T13:24:23.482Z,98073.88
2023-01-17T13:27:50.775Z,98083.16
2023-01-17T13:31:20.597Z,98089.25
2023-01-17T13:34:29.278Z,98082.63
2023-01-17T13:38:24.082Z,98071.44
2023-01-17T13:41:35.234Z,98067.50
2023-01-17T13:44:37.707Z,98046.75
2023-01-17T13:47:41.533Z,98035.59
2023-01-17T13:50:47.343Z,98053.41
2023-01-17T13:53:49.708Z,98051.78
2023-01-17T13:57:55.156Z,98031.09
2023-01-17T14:00:57.506Z,98025.75
2023-01-17T14:04:05.868Z,98030.81
2023-01-17T14:07:19.055Z,98017.50
2023-01-17T14:10:43.108Z,98005.88
2023-01-17T14:13:49.749Z,97964.16
2023-01-17T14:16:53.490Z,97985.13
2023-01-17T14:20:01.202Z,97971.06
2023-01-17T14:23:26.251Z,97950.66
2023-01-17T14:26:31.827Z,97969.47
2023-01-17T14:29:44.055Z,97966.28
2023-01-17T14:33:02.401Z,97950.09
2023-01-17T14:36:09.558Z,97921.72
2023-01-17T14:39:22.474Z,97933.38
2023-01-17T14:42:33.331Z,97917.44
2023-01-17T14:45:36.094Z,97937.38
2023-01-17T14:48:40.211Z,97944.53
2023-01-17T14:51:42.460Z,97912.94
2023-01-17T14:54:49.312Z,97906.03
2023-01-17T14:57:56.402Z,97901.81
2023-01-17T15:01:04.694Z,97906.06
2023-01-17T15:04:07.395Z,97897.03
2023-01-17T15:07:24.425Z,97916.91
2023-01-17T15:10:32.074Z,97919.88
2023-01-17T15:13:44.585Z,97920.66
2023-01-17T15:16:47.551Z,97918.53
2023-01-17T15:19:57.082Z,97901.53
2023-01-17T15:22:59.563Z,97908.41
2023-01-17T15:26:03.167Z,97890.91
2023-01-17T15:29:15.898Z,97901.53
2023-01-17T15:32:23.534Z,97895.16
2023-01-17T15:35:29.809Z,97896.41
2023-01-17T15:38:38.719Z,97887.34
2023-01-17T15:41:42.379Z,97896.63
2023-01-17T15:44:49.380Z,97865.28
2023-01-17T15:47:52.452Z,97870.88
2023-01-17T15:51:07.390Z,97847.25
2023-01-17T15:54:28.819Z,97867.41
2023-01-17T15:57:38.988Z,97865.56
2023-01-17T16:00:42.117Z,97857.84
2023-01-17T16:03:56.452Z,97871.78
2023-01-17T16:07:21.932Z,97839.19
2023-01-17T16:10:32.696Z,97828.59
2023-01-17T16:13:39.294Z,97854.34
2023-01-17T16:16:50.329Z,97854.84
2023-01-17T16:19:52.644Z,97846.16
2023-01-17T16:22:55.013Z,97849.31
2023-01-17T16:25:57.317Z,97857.03
2023-01-17T16:28:59.637Z,97846.91
2023-01-17T16:32:08.784Z,97832.34
2023-01-17T16:35:20.872Z,97832.81
2023-01-17T16:38:23.337Z,97833.59
2023-01-17T16:41:25.759Z,97812.63
2023-01-17T16:44:28.952Z,97830.41
2023-01-17T16:47:31.670Z,97818.91
2023-01-17T16:50:36.439Z,97820.00
2023-01-17T16:53:38.929Z,97823.69
2023-01-17T16:56:41.241Z,97807.81
2023-01-17T16:59:50.612Z,97808.63
2023-01-17T17:02:54.115Z,97817.06
2023-01-17T17:06:00.718Z,97792.94
2023-01-17T17:09:03.067Z,97802.44
2023-01-17T17:12:05.846Z,97804.28
2023-01-17T17:15:09.338Z,97795.50
2023-01-17T17:18:16.595Z,97796.25
2023-01-17T17:21:18.832Z,97784.63
2023-01-17T17:24:21.094Z,97771.91
2023-01-17T17:27:26.550Z,97769.03
2023-01-17T17:30:28.984Z,97745.75
2023-01-17T17:33:31.323Z,97730.34
2023-01-17T17:36:34.840Z,97749.72
2023-01-17T17:39:37.245Z,97740.47
2023-01-17T17:42:39.648Z,97734.38
2023-01-17T17:45:41.915Z,97743.13
2023-01-17T17:48:44.672Z,97724.91
2023-01-17T17:51:47.539Z,97691.78
2023-01-17T17:54:49.921Z,97685.38
2023-01-17T17:57:52.508Z,97675.31
2023-01-17T18:00:55.024Z,97666.88
2023-01-17T18:04:01.951Z,97672.72
2023-01-17T18:07:04.344Z,97652.09
2023-01-17T18:10:07.476Z,97633.53
2023-01-17T18:13:09.782Z,97613.72
2023-01-17T18:16:14.694Z,97601.53
2023-01-17T18:19:23.852Z,97560.78
2023-01-17T18:22:26.217Z,97580.41
2023-01-17T18:25:28.510Z,97573.81
2023-01-17T18:28:30.758Z,97550.59
2023-01-17T18:31:33.748Z,97556.66
2023-01-17T18:34:39.334Z,97556.44
2023-01-17T18:37:41.572Z,97578.38
2023-01-17T18:40:43.861Z,97559.84
2023-01-17T18:43:46.645Z,97557.19
2023-01-17T18:46:50.452Z,97556.41
2023-01-17T18:49:53.874Z,97556.44
2023-01-17T18:52:56.521Z,97545.81
2023-01-17T18:56:00.545Z,97542.09
2023-01-17T18:59:06.208Z,97544.25
2023-01-17T19:02:09.195Z,97522.03
2023-01-17T19:05:13.044Z,97491.88
2023-01-17T19:08:16.188Z,97514.09
2023-01-17T19:11:19.982Z,97501.41
2023-01-17T19:14:22.773Z,97501.13
2023-01-17T19:17:25.033Z,97475.47
2023-01-17T19:20:27.332Z,97470.16
2023-01-17T19:23:29.644Z,97464.34
2023-01-17T19:26:32.012Z,97446.09
2023-01-17T19:29:34.264Z,97442.13
2023-01-17T19:32:36.542Z,97442.94
2023-01-17T19:35:38.888Z,97462.22
2023-01-17T19:38:42.819Z,97441.84
2023-01-17T19:41:47.761Z,97448.75
2023-01-17T19:44:50.059Z,97451.63
2023-01-17T19:47:52.360Z,97439.47
2023-01-17T19:50:55.075Z,97422.00
2023-01-17T19:54:01.382Z,97407.16
2023-01-17T19:57:03.819Z,97396.06
2023-01-17T20:00:17.966Z,97397.13
2023-01-17T20:03:21.791Z,97410.59
2023-01-17T20:06:29.631Z,97395.28
2023-01-17T20:09:32.030Z,97392.91
2023-01-17T20:12:34.335Z,97366.44
2023-01-17T20:15:36.578Z,97340.81
2023-01-17T20:18:38.880Z,97345.81
2023-01-17T20:21:41.230Z,97349.47
2023-01-17T20:24:43.511Z,97343.66
2023-01-17T20:27:45.725Z,97358.72
2023-01-17T20:30:47.946Z,97349.81
2023-01-17T20:33:52.205Z,97352.44
2023-01-17T20:36:57.517Z,97360.06
2023-01-17T20:39:59.915Z,97353.22
2023-01-17T20:43:02.195Z,97356.09
2023-01-17T20:46:05.702Z,97348.69
2023-01-17T20:49:14.746Z,97352.91
2023-01-17T20:52:17.657Z,97326.22
2023-01-17T20:55:20.050Z,97318.00
2023-01-17T20:58:22.419Z,97308.78
2023-01-17T21:01:24.835Z,97319.34
2023-01-17T21:04:27.183Z,97330.41
2023-01-17T21:07:29.412Z,97315.63
2023-01-17T21:10:31.674Z,97328.09
2023-01-17T21:13:34.227Z,97329.72
2023-01-17T21:16:36.591Z,97308.81
2023-01-17T21:19:38.934Z,97274.41
2023-01-17T21:22:41.243Z,97286.06
2023-01-17T21:25:55.411Z,97272.81
2023-01-17T21:28:58.787Z,97255.72
2023-01-17T21:32:01.126Z,97230.09
2023-01-17T21:35:03.530Z,97266.03
2023-01-17T21:38:05.820Z,97294.06
2023-01-17T21:41:08.129Z,97280.34
2023-01-17T21:44:21.635Z,97239.66
2023-01-17T21:47:23.936Z,97211.66
2023-01-17T21:50:33.392Z,97219.84
2023-01-17T21:53:37.785Z,97229.56
2023-01-17T21:56:58.704Z,97221.66
2023-01-17T22:00:00.996Z,97226.41
2023-01-17T22:03:03.688Z,97223.75
2023-01-17T22:06:06.359Z,97201.03
2023-01-17T22:09:08.725Z,97214.72
2023-01-17T22:12:11.022Z,97245.69
2023-01-17T22:15:13.937Z,97207.66
2023-01-17T22:18:16.461Z,97202.69
2023-01-17T22:21:19.960Z,97231.72
2023-01-17T22:24:22.295Z,97177.56
2023-01-17T22:27:24.587Z,97184.19
2023-01-17T22:30:26.915Z,97200.81
2023-01-17T22:33:29.237Z,97198.44
2023-01-17T22:36:35.158Z,97194.22
2023-01-17T22:39:38.416Z,97197.66
2023-01-17T22:42:40.798Z,97203.19
2023-01-17T22:45:43.130Z,97212.16
2023-01-17T22:48:45.924Z,97211.66
2023-01-17T22:51:48.295Z,97224.84
2023-01-17T22:54:50.879Z,97205.03
2023-01-17T22:57:53.207Z,97230.66
2023-01-17T23:01:10.792Z,97249.16
2023-01-17T23:04:14.701Z,97230.59
2023-01-17T23:07:17.049Z,97216.38
2023-01-17T23:10:39.429Z,97230.34
2023-01-17T23:13:41.737Z,97223.25
2023-01-17T23:17:11.300Z,97240.66
2023-01-17T23:20:13.617Z,97234.03
2023-01-17T23:23:15.899Z,97245.94
2023-01-17T23:26:18.231Z,97247.53
2023-01-17T23:29:20.467Z,97268.63
2023-01-17T23:32:22.867Z,97277.88
2023-01-17T23:35:28.513Z,97263.16
2023-01-17T23:38:30.919Z,97266.78
2023-01-17T23:41:51.700Z,97268.13
2023-01-17T23:44:54.069Z,97268.13
2023-01-17T23:47:56.307Z,97242.78
2023-01-17T23:51:08.971Z,97267.34
2023-01-17T23:54:11.318Z,97249.38
2023-01-17T23:57:13.749Z,97265.78
